sensor_id;sensor_type;location;lat;lon;timestamp;temperature;humidity
16060;DHT22;8134;49.552;7.632;2022-12-18T09:54:43;-5.10;99.90
16060;DHT22;8134;49.552;7.632;2022-12-18T09:57:14;-5.00;99.90
16060;DHT22;8134;49.552;7.632;2022-12-18T10:08:21;-4.50;99.90
16060;DHT22;8134;49.552;7.632;2022-12-18T10:10:58;-4.40;99.90
16060;DHT22;8134;49.552;7.632;2022-12-18T10:13:31;-4.20;99.90
16060;DHT22;8134;49.552;7.632;2022-12-18T10:18:59;-4.00;99.90
16060;DHT22;8134;49.552;7.632;2022-12-18T10:21:58;-3.90;99.90
16060;DHT22;8134;49.552;7.632;2022-12-18T10:24:40;-3.80;99.90
16060;DHT22;8134;49.552;7.632;2022-12-18T10:27:26;-3.70;99.90
16060;DHT22;8134;49.552;7.632;2022-12-18T10:29:52;-3.60;99.90
16060;DHT22;8134;49.552;7.632;2022-12-18T10:32:30;-3.50;99.90
16060;DHT22;8134;49.552;7.632;2022-12-18T10:35:08;-3.40;99.90
16060;DHT22;8134;49.552;7.632;2022-12-18T10:37:39;-3.20;99.90
16060;DHT22;8134;49.552;7.632;2022-12-18T10:40:24;-3.10;99.90
16060;DHT22;8134;49.552;7.632;2022-12-18T10:43:13;-2.90;99.90
16060;DHT22;8134;49.552;7.632;2022-12-18T10:48:40;-2.90;99.90
16060;DHT22;8134;49.552;7.632;2022-12-18T11:09:24;-2.50;99.90
16060;DHT22;8134;49.552;7.632;2022-12-18T11:11:52;-2.40;99.90
16060;DHT22;8134;49.552;7.632;2022-12-18T11:14:34;-2.50;99.90
16060;DHT22;8134;49.552;7.632;2022-12-18T11:20:20;-2.50;99.90
16060;DHT22;8134;49.552;7.632;2022-12-18T11:22:58;-2.50;99.90
16060;DHT22;8134;49.552;7.632;2022-12-18T11:25:32;-2.50;99.90
16060;DHT22;8134;49.552;7.632;2022-12-18T11:28:34;-2.50;99.90
16060;DHT22;8134;49.552;7.632;2022-12-18T11:42:59;-2.30;99.90
16060;DHT22;8134;49.552;7.632;2022-12-18T11:45:38;-2.20;99.90
16060;DHT22;8134;49.552;7.632;2022-12-18T11:48:27;-2.10;99.90
16060;DHT22;8134;49.552;7.632;2022-12-18T11:51:14;-2.10;99.90
16060;DHT22;8134;49.552;7.632;2022-12-18T11:53:51;-2.10;99.90
16060;DHT22;8134;49.552;7.632;2022-12-18T11:56:36;-2.20;99.90
16060;DHT22;8134;49.552;7.632;2022-12-18T12:07:49;-2.30;99.90
16060;DHT22;8134;49.552;7.632;2022-12-18T12:21:11;-2.30;99.90
16060;DHT22;8134;49.552;7.632;2022-12-18T12:26:40;-2.30;99.90
16060;DHT22;8134;49.552;7.632;2022-12-18T12:37:45;-2.30;99.90
16060;DHT22;8134;49.552;7.632;2022-12-18T12:40:34;-2.30;99.90
16060;DHT22;8134;49.552;7.632;2022-12-18T12:43:19;-2.30;99.90
16060;DHT22;8134;49.552;7.632;2022-12-18T12:51:06;-2.20;99.90
16060;DHT22;8134;49.552;7.632;2022-12-18T12:53:37;-2.20;99.90
16060;DHT22;8134;49.552;7.632;2022-12-18T12:56:06;-2.10;99.90
16060;DHT22;8134;49.552;7.632;2022-12-18T13:06:40;-2.20;99.90
16060;DHT22;8134;49.552;7.632;2022-12-18T13:09:12;-2.30;99.90
16060;DHT22;8134;49.552;7.632;2022-12-18T13:11:45;-2.30;99.90
16060;DHT22;8134;49.552;7.632;2022-12-18T13:17:46;-2.30;99.90
16060;DHT22;8134;49.552;7.632;2022-12-18T13:26:28;-2.20;99.90
16060;DHT22;8134;49.552;7.632;2022-12-18T13:28:57;-2.20;99.90
16060;DHT22;8134;49.552;7.632;2022-12-18T13:36:46;-2.20;99.90
16060;DHT22;8134;49.552;7.632;2022-12-18T13:44:35;-2.30;99.90
16060;DHT22;8134;49.552;7.632;2022-12-18T13:47:04;-2.30;99.90
16060;DHT22;8134;49.552;7.632;2022-12-18T13:50:04;-2.40;99.90
16060;DHT22;8134;49.552;7.632;2022-12-18T13:52:24;-2.50;99.90
16060;DHT22;8134;49.552;7.632;2022-12-18T13:55:04;-2.40;99.90
16060;DHT22;8134;49.552;7.632;2022-12-18T13:57:37;-2.40;99.90
16060;DHT22;8134;49.552;7.632;2022-12-18T14:00:16;-2.40;99.90
16060;DHT22;8134;49.552;7.632;2022-12-18T14:02:44;-2.40;99.90
16060;DHT22;8134;49.552;7.632;2022-12-18T14:05:21;-2.40;99.90
16060;DHT22;8134;49.552;7.632;2022-12-18T14:07:53;-2.40;99.90
16060;DHT22;8134;49.552;7.632;2022-12-18T14:10:26;-2.40;99.90
16060;DHT22;8134;49.552;7.632;2022-12-18T14:12:52;-2.30;99.90
16060;DHT22;8134;49.552;7.632;2022-12-18T14:18:01;-2.30;99.90
16060;DHT22;8134;49.552;7.632;2022-12-18T14:20:28;-2.40;99.90
16060;DHT22;8134;49.552;7.632;2022-12-18T14:22:54;-2.40;99.90
16060;DHT22;8134;49.552;7.632;2022-12-18T14:25:25;-2.40;99.90
16060;DHT22;8134;49.552;7.632;2022-12-18T14:33:13;-2.40;99.90
16060;DHT22;8134;49.552;7.632;2022-12-18T14:35:51;-2.40;99.90
16060;DHT22;8134;49.552;7.632;2022-12-18T14:38:37;-2.40;99.90
16060;DHT22;8134;49.552;7.632;2022-12-18T14:41:10;-2.50;99.90
16060;DHT22;8134;49.552;7.632;2022-12-18T14:43:36;-2.40;99.90
16060;DHT22;8134;49.552;7.632;2022-12-18T14:48:47;-2.50;99.90
16060;DHT22;8134;49.552;7.632;2022-12-18T14:56:27;-2.50;99.90
16060;DHT22;8134;49.552;7.632;2022-12-18T14:58:55;-2.50;99.90
16060;DHT22;8134;49.552;7.632;2022-12-18T15:03:58;-2.50;99.90
16060;DHT22;8134;49.552;7.632;2022-12-18T15:06:35;-2.50;99.90
16060;DHT22;8134;49.552;7.632;2022-12-18T15:11:49;-2.50;99.90
16060;DHT22;8134;49.552;7.632;2022-12-18T15:16:53;-2.50;99.90
16060;DHT22;8134;49.552;7.632;2022-12-18T15:19:21;-2.50;99.90
16060;DHT22;8134;49.552;7.632;2022-12-18T15:22:00;-2.50;99.90
16060;DHT22;8134;49.552;7.632;2022-12-18T15:24:31;-2.50;99.90
16060;DHT22;8134;49.552;7.632;2022-12-18T15:27:03;-2.60;99.90
16060;DHT22;8134;49.552;7.632;2022-12-18T15:29:35;-2.60;99.90
16060;DHT22;8134;49.552;7.632;2022-12-18T15:32:02;-2.50;99.90
16060;DHT22;8134;49.552;7.632;2022-12-18T15:34:37;-2.50;99.90
16060;DHT22;8134;49.552;7.632;2022-12-18T15:37:06;-2.20;99.90
16060;DHT22;8134;49.552;7.632;2022-12-18T15:39:35;-2.50;99.90
16060;DHT22;8134;49.552;7.632;2022-12-18T15:42:01;-2.40;99.90
16060;DHT22;8134;49.552;7.632;2022-12-18T15:44:49;-2.40;99.90
16060;DHT22;8134;49.552;7.632;2022-12-18T15:47:18;-2.50;99.90
16060;DHT22;8134;49.552;7.632;2022-12-18T15:49:46;-2.50;99.90
16060;DHT22;8134;49.552;7.632;2022-12-18T15:52:12;-2.60;99.90
16060;DHT22;8134;49.552;7.632;2022-12-18T15:55:04;-2.60;99.90
16060;DHT22;8134;49.552;7.632;2022-12-18T15:57:52;-2.70;99.90
16060;DHT22;8134;49.552;7.632;2022-12-18T16:00:35;-2.70;99.90
16060;DHT22;8134;49.552;7.632;2022-12-18T16:03:09;-2.70;99.90
16060;DHT22;8134;49.552;7.632;2022-12-18T16:05:40;-2.70;99.90
16060;DHT22;8134;49.552;7.632;2022-12-18T16:08:09;-2.70;99.90
16060;DHT22;8134;49.552;7.632;2022-12-18T16:10:34;-2.70;99.90
16060;DHT22;8134;49.552;7.632;2022-12-18T16:13:09;-2.70;99.90
16060;DHT22;8134;49.552;7.632;2022-12-18T16:15:35;-2.80;99.90
16060;DHT22;8134;49.552;7.632;2022-12-18T16:18:00;-2.80;99.90
16060;DHT22;8134;49.552;7.632;2022-12-18T16:20:29;-2.80;99.90
16060;DHT22;8134;49.552;7.632;2022-12-18T16:22:57;-2.80;99.90
16060;DHT22;8134;49.552;7.632;2022-12-18T16:25:27;-2.90;99.90
16060;DHT22;8134;49.552;7.632;2022-12-18T16:27:56;-3.00;99.90
16060;DHT22;8134;49.552;7.632;2022-12-18T16:30:23;-3.10;99.90
16060;DHT22;8134;49.552;7.632;2022-12-18T16:32:49;-3.10;99.90
16060;DHT22;8134;49.552;7.632;2022-12-18T16:35:15;-3.20;99.90
16060;DHT22;8134;49.552;7.632;2022-12-18T16:37:42;-3.20;99.90
16060;DHT22;8134;49.552;7.632;2022-12-18T16:43:19;-3.20;99.90
16060;DHT22;8134;49.552;7.632;2022-12-18T16:45:45;-3.20;99.90
16060;DHT22;8134;49.552;7.632;2022-12-18T16:48:20;-3.20;99.90
16060;DHT22;8134;49.552;7.632;2022-12-18T16:50:59;-3.20;99.90
16060;DHT22;8134;49.552;7.632;2022-12-18T16:53:31;-3.20;99.90
16060;DHT22;8134;49.552;7.632;2022-12-18T16:56:01;-3.30;99.90
16060;DHT22;8134;49.552;7.632;2022-12-18T16:58:33;-3.30;99.90
16060;DHT22;8134;49.552;7.632;2022-12-18T17:01:07;-3.20;99.90
16060;DHT22;8134;49.552;7.632;2022-12-18T17:03:33;-3.30;99.90
16060;DHT22;8134;49.552;7.632;2022-12-18T17:06:08;-3.30;99.90
16060;DHT22;8134;49.552;7.632;2022-12-18T17:08:37;-3.20;99.90
16060;DHT22;8134;49.552;7.632;2022-12-18T17:11:06;-3.20;99.90
16060;DHT22;8134;49.552;7.632;2022-12-18T17:13:40;-3.20;99.90
16060;DHT22;8134;49.552;7.632;2022-12-18T17:16:09;-3.20;99.90
16060;DHT22;8134;49.552;7.632;2022-12-18T17:18:42;-3.10;99.90
16060;DHT22;8134;49.552;7.632;2022-12-18T17:21:08;-3.10;99.90
16060;DHT22;8134;49.552;7.632;2022-12-18T17:23:39;-3.10;99.90
16060;DHT22;8134;49.552;7.632;2022-12-18T17:26:10;-3.10;99.90
16060;DHT22;8134;49.552;7.632;2022-12-18T17:28:42;-3.10;99.90
16060;DHT22;8134;49.552;7.632;2022-12-18T17:31:21;-3.10;99.90
16060;DHT22;8134;49.552;7.632;2022-12-18T17:33:51;-3.10;99.90
16060;DHT22;8134;49.552;7.632;2022-12-18T17:36:21;-3.10;99.90
16060;DHT22;8134;49.552;7.632;2022-12-18T17:38:59;-3.10;99.90
16060;DHT22;8134;49.552;7.632;2022-12-18T17:41:37;-3.10;99.90
16060;DHT22;8134;49.552;7.632;2022-12-18T17:44:06;-3.00;99.90
16060;DHT22;8134;49.552;7.632;2022-12-18T17:46:35;-2.90;99.90
16060;DHT22;8134;49.552;7.632;2022-12-18T17:49:01;-2.80;99.90
16060;DHT22;8134;49.552;7.632;2022-12-18T17:51:31;-2.70;99.90
16060;DHT22;8134;49.552;7.632;2022-12-18T17:54:00;-2.60;99.90
16060;DHT22;8134;49.552;7.632;2022-12-18T17:56:29;-2.60;99.90
16060;DHT22;8134;49.552;7.632;2022-12-18T17:58:58;-2.50;99.90
16060;DHT22;8134;49.552;7.632;2022-12-18T18:01:24;-2.50;99.90
16060;DHT22;8134;49.552;7.632;2022-12-18T18:03:58;-2.40;99.90
16060;DHT22;8134;49.552;7.632;2022-12-18T18:06:24;-2.40;99.90
16060;DHT22;8134;49.552;7.632;2022-12-18T18:08:50;-2.40;99.90
16060;DHT22;8134;49.552;7.632;2022-12-18T18:11:18;-2.40;99.90
16060;DHT22;8134;49.552;7.632;2022-12-18T18:14:11;-2.40;99.90
16060;DHT22;8134;49.552;7.632;2022-12-18T18:16:47;-2.40;99.90
16060;DHT22;8134;49.552;7.632;2022-12-18T18:19:18;-2.40;99.90
16060;DHT22;8134;49.552;7.632;2022-12-18T18:21:45;-2.30;99.90
16060;DHT22;8134;49.552;7.632;2022-12-18T18:24:12;-2.30;99.90
16060;DHT22;8134;49.552;7.632;2022-12-18T18:26:39;-2.30;99.90
16060;DHT22;8134;49.552;7.632;2022-12-18T18:29:13;-2.20;99.90
16060;DHT22;8134;49.552;7.632;2022-12-18T18:31:43;-2.20;99.90
16060;DHT22;8134;49.552;7.632;2022-12-18T18:34:13;-2.20;99.90
16060;DHT22;8134;49.552;7.632;2022-12-18T18:36:39;-2.10;99.90
16060;DHT22;8134;49.552;7.632;2022-12-18T18:39:07;-2.10;99.90
16060;DHT22;8134;49.552;7.632;2022-12-18T18:41:34;-2.10;99.90
16060;DHT22;8134;49.552;7.632;2022-12-18T18:47:04;-2.10;99.90
16060;DHT22;8134;49.552;7.632;2022-12-18T18:49:31;-2.10;99.90
16060;DHT22;8134;49.552;7.632;2022-12-18T18:52:09;-2.10;99.90
16060;DHT22;8134;49.552;7.632;2022-12-18T18:54:40;-2.10;99.90
16060;DHT22;8134;49.552;7.632;2022-12-18T18:57:09;-2.10;99.90
16060;DHT22;8134;49.552;7.632;2022-12-18T18:59:42;-2.10;99.90
16060;DHT22;8134;49.552;7.632;2022-12-18T19:02:12;-2.00;99.90
16060;DHT22;8134;49.552;7.632;2022-12-18T19:04:39;-2.00;99.90
16060;DHT22;8134;49.552;7.632;2022-12-18T19:07:08;-2.00;99.90
16060;DHT22;8134;49.552;7.632;2022-12-18T19:09:37;-2.00;99.90
16060;DHT22;8134;49.552;7.632;2022-12-18T19:12:06;-2.00;99.90
16060;DHT22;8134;49.552;7.632;2022-12-18T19:14:52;-2.00;99.90
16060;DHT22;8134;49.552;7.632;2022-12-18T19:17:18;-1.90;99.90
16060;DHT22;8134;49.552;7.632;2022-12-18T19:19:46;-2.00;99.90
16060;DHT22;8134;49.552;7.632;2022-12-18T19:22:11;-1.90;99.90
16060;DHT22;8134;49.552;7.632;2022-12-18T19:24:37;-1.90;99.90
16060;DHT22;8134;49.552;7.632;2022-12-18T19:27:02;-1.90;99.90
16060;DHT22;8134;49.552;7.632;2022-12-18T19:29:28;-1.90;99.90
16060;DHT22;8134;49.552;7.632;2022-12-18T19:31:53;-1.90;99.90
16060;DHT22;8134;49.552;7.632;2022-12-18T19:34:19;-1.90;99.90
16060;DHT22;8134;49.552;7.632;2022-12-18T19:36:48;-1.90;99.90
16060;DHT22;8134;49.552;7.632;2022-12-18T19:39:15;-1.90;99.90
16060;DHT22;8134;49.552;7.632;2022-12-18T19:41:41;-1.90;99.90
16060;DHT22;8134;49.552;7.632;2022-12-18T19:44:11;-1.90;99.90
16060;DHT22;8134;49.552;7.632;2022-12-18T19:46:37;-1.90;99.90
16060;DHT22;8134;49.552;7.632;2022-12-18T19:49:03;-1.70;99.90
16060;DHT22;8134;49.552;7.632;2022-12-18T19:51:29;-1.90;99.90
16060;DHT22;8134;49.552;7.632;2022-12-18T19:53:56;-1.90;99.90
16060;DHT22;8134;49.552;7.632;2022-12-18T19:56:23;-1.90;99.90
16060;DHT22;8134;49.552;7.632;2022-12-18T19:58:50;-1.90;99.90
16060;DHT22;8134;49.552;7.632;2022-12-18T20:01:24;-1.70;99.90
16060;DHT22;8134;49.552;7.632;2022-12-18T20:03:50;-1.90;99.90
16060;DHT22;8134;49.552;7.632;2022-12-18T20:06:35;-1.90;99.90
16060;DHT22;8134;49.552;7.632;2022-12-18T20:09:09;-1.90;99.90
16060;DHT22;8134;49.552;7.632;2022-12-18T20:11:39;-1.80;99.90
16060;DHT22;8134;49.552;7.632;2022-12-18T20:14:16;-1.80;99.90
16060;DHT22;8134;49.552;7.632;2022-12-18T20:16:42;-1.80;99.90
16060;DHT22;8134;49.552;7.632;2022-12-18T20:19:09;-1.80;99.90
16060;DHT22;8134;49.552;7.632;2022-12-18T20:21:36;-1.80;99.90
16060;DHT22;8134;49.552;7.632;2022-12-18T20:24:01;-1.70;99.90
16060;DHT22;8134;49.552;7.632;2022-12-18T20:26:27;-1.70;99.90
16060;DHT22;8134;49.552;7.632;2022-12-18T20:28:56;-1.70;99.90
16060;DHT22;8134;49.552;7.632;2022-12-18T20:31:40;-1.70;99.90
16060;DHT22;8134;49.552;7.632;2022-12-18T20:34:06;-1.70;99.90
16060;DHT22;8134;49.552;7.632;2022-12-18T20:36:31;-1.70;99.90
16060;DHT22;8134;49.552;7.632;2022-12-18T20:38:57;-1.70;99.90
16060;DHT22;8134;49.552;7.632;2022-12-18T20:41:48;-1.80;99.90
16060;DHT22;8134;49.552;7.632;2022-12-18T20:44:15;-1.80;99.90
16060;DHT22;8134;49.552;7.632;2022-12-18T20:46:41;-1.70;99.90
16060;DHT22;8134;49.552;7.632;2022-12-18T20:49:06;-1.70;99.90
16060;DHT22;8134;49.552;7.632;2022-12-18T20:51:33;-1.70;99.90
16060;DHT22;8134;49.552;7.632;2022-12-18T20:54:02;-1.80;99.90
16060;DHT22;8134;49.552;7.632;2022-12-18T20:56:31;-1.80;99.90
16060;DHT22;8134;49.552;7.632;2022-12-18T20:58:58;-1.70;99.90
16060;DHT22;8134;49.552;7.632;2022-12-18T21:01:25;-1.70;99.90
16060;DHT22;8134;49.552;7.632;2022-12-18T21:04:07;-1.80;99.90
16060;DHT22;8134;49.552;7.632;2022-12-18T21:06:36;-1.80;99.90
16060;DHT22;8134;49.552;7.632;2022-12-18T21:09:16;-1.80;99.90
16060;DHT22;8134;49.552;7.632;2022-12-18T21:11:51;-1.70;99.90
16060;DHT22;8134;49.552;7.632;2022-12-18T21:14:35;-1.80;99.90
16060;DHT22;8134;49.552;7.632;2022-12-18T21:17:01;-1.70;99.90
16060;DHT22;8134;49.552;7.632;2022-12-18T21:19:27;-1.70;99.90
16060;DHT22;8134;49.552;7.632;2022-12-18T21:21:53;-1.80;99.90
16060;DHT22;8134;49.552;7.632;2022-12-18T21:24:19;-1.80;99.90
16060;DHT22;8134;49.552;7.632;2022-12-18T21:26:45;-1.80;99.90
16060;DHT22;8134;49.552;7.632;2022-12-18T21:29:16;-1.80;99.90
16060;DHT22;8134;49.552;7.632;2022-12-18T21:31:42;-1.80;99.90
16060;DHT22;8134;49.552;7.632;2022-12-18T21:34:09;-1.80;99.90
16060;DHT22;8134;49.552;7.632;2022-12-18T21:36:41;-1.90;99.90
16060;DHT22;8134;49.552;7.632;2022-12-18T21:39:11;-1.90;99.90
16060;DHT22;8134;49.552;7.632;2022-12-18T21:41:43;-1.90;99.90
16060;DHT22;8134;49.552;7.632;2022-12-18T21:44:27;-1.80;99.90
